sensor_id;sensor_type;location;lat;lon;timestamp;temperature;humidity
29281;DHT22;25048;49.590;11.026;2022-10-31T00:01:30;8.50;99.90
29281;DHT22;25048;49.590;11.026;2022-10-31T00:03:58;8.50;99.90
29281;DHT22;25048;49.590;11.026;2022-10-31T00:06:26;8.50;99.90
29281;DHT22;25048;49.590;11.026;2022-10-31T00:08:56;8.40;99.90
29281;DHT22;25048;49.590;11.026;2022-10-31T00:11:24;8.40;99.90
29281;DHT22;25048;49.590;11.026;2022-10-31T00:13:52;8.40;99.90
29281;DHT22;25048;49.590;11.026;2022-10-31T00:16:22;8.40;99.90
29281;DHT22;25048;49.590;11.026;2022-10-31T00:18:55;8.40;99.90
29281;DHT22;25048;49.590;11.026;2022-10-31T00:21:23;8.30;99.90
29281;DHT22;25048;49.590;11.026;2022-10-31T00:23:51;8.20;99.90
29281;DHT22;25048;49.590;11.026;2022-10-31T00:26:19;8.20;99.90
29281;DHT22;25048;49.590;11.026;2022-10-31T00:28:47;8.20;99.90
29281;DHT22;25048;49.590;11.026;2022-10-31T00:31:15;8.20;99.90
29281;DHT22;25048;49.590;11.026;2022-10-31T00:33:42;8.10;99.90
29281;DHT22;25048;49.590;11.026;2022-10-31T00:36:16;8.10;99.90
29281;DHT22;25048;49.590;11.026;2022-10-31T00:38:44;8.00;99.90
29281;DHT22;25048;49.590;11.026;2022-10-31T00:41:13;8.00;99.90
29281;DHT22;25048;49.590;11.026;2022-10-31T00:43:42;8.00;99.90
29281;DHT22;25048;49.590;11.026;2022-10-31T00:46:11;7.90;99.90
29281;DHT22;25048;49.590;11.026;2022-10-31T00:48:39;7.90;99.90
29281;DHT22;25048;49.590;11.026;2022-10-31T00:51:06;7.90;99.90
29281;DHT22;25048;49.590;11.026;2022-10-31T00:53:34;7.80;99.90
29281;DHT22;25048;49.590;11.026;2022-10-31T00:56:21;7.80;99.90
29281;DHT22;25048;49.590;11.026;2022-10-31T00:58:48;7.80;99.90
29281;DHT22;25048;49.590;11.026;2022-10-31T01:01:16;7.80;99.90
29281;DHT22;25048;49.590;11.026;2022-10-31T01:03:43;7.80;99.90
29281;DHT22;25048;49.590;11.026;2022-10-31T01:06:12;7.80;99.90
29281;DHT22;25048;49.590;11.026;2022-10-31T01:08:40;7.80;99.90
29281;DHT22;25048;49.590;11.026;2022-10-31T01:11:13;7.80;99.90
29281;DHT22;25048;49.590;11.026;2022-10-31T01:13:41;7.80;99.90
29281;DHT22;25048;49.590;11.026;2022-10-31T01:16:12;7.70;99.90
29281;DHT22;25048;49.590;11.026;2022-10-31T01:18:40;7.70;99.90
29281;DHT22;25048;49.590;11.026;2022-10-31T01:21:14;7.70;99.90
29281;DHT22;25048;49.590;11.026;2022-10-31T01:23:38;7.70;99.90
29281;DHT22;25048;49.590;11.026;2022-10-31T01:26:11;7.60;99.90
29281;DHT22;25048;49.590;11.026;2022-10-31T01:28:45;7.60;99.90
29281;DHT22;25048;49.590;11.026;2022-10-31T01:31:13;7.60;99.90
29281;DHT22;25048;49.590;11.026;2022-10-31T01:33:41;7.60;99.90
29281;DHT22;25048;49.590;11.026;2022-10-31T01:36:32;7.60;99.90
29281;DHT22;25048;49.590;11.026;2022-10-31T01:39:06;7.50;99.90
29281;DHT22;25048;49.590;11.026;2022-10-31T01:41:34;7.50;99.90
29281;DHT22;25048;49.590;11.026;2022-10-31T01:47:05;7.40;99.90
29281;DHT22;25048;49.590;11.026;2022-10-31T01:49:44;7.40;99.90
29281;DHT22;25048;49.590;11.026;2022-10-31T01:52:45;7.40;99.90
29281;DHT22;25048;49.590;11.026;2022-10-31T01:55:18;7.50;99.90
29281;DHT22;25048;49.590;11.026;2022-10-31T01:57:48;7.40;99.90
29281;DHT22;25048;49.590;11.026;2022-10-31T02:00:16;7.40;99.90
29281;DHT22;25048;49.590;11.026;2022-10-31T02:02:45;7.40;99.90
29281;DHT22;25048;49.590;11.026;2022-10-31T02:05:16;7.50;99.90
29281;DHT22;25048;49.590;11.026;2022-10-31T02:07:55;7.50;99.90
29281;DHT22;25048;49.590;11.026;2022-10-31T02:10:25;7.60;99.90
29281;DHT22;25048;49.590;11.026;2022-10-31T02:12:55;7.70;99.90
29281;DHT22;25048;49.590;11.026;2022-10-31T02:15:23;7.70;99.90
29281;DHT22;25048;49.590;11.026;2022-10-31T02:17:51;7.80;99.90
29281;DHT22;25048;49.590;11.026;2022-10-31T02:20:42;7.80;99.90
29281;DHT22;25048;49.590;11.026;2022-10-31T02:23:30;7.90;99.90
29281;DHT22;25048;49.590;11.026;2022-10-31T02:28:52;8.10;99.90
29281;DHT22;25048;49.590;11.026;2022-10-31T02:34:34;8.10;99.90
29281;DHT22;25048;49.590;11.026;2022-10-31T02:37:17;8.20;99.90
29281;DHT22;25048;49.590;11.026;2022-10-31T02:39:52;8.20;99.90
29281;DHT22;25048;49.590;11.026;2022-10-31T02:42:25;8.20;99.90
29281;DHT22;25048;49.590;11.026;2022-10-31T02:45:04;8.20;99.90
29281;DHT22;25048;49.590;11.026;2022-10-31T02:47:29;8.10;99.90
29281;DHT22;25048;49.590;11.026;2022-10-31T02:52:51;8.00;99.90
29281;DHT22;25048;49.590;11.026;2022-10-31T02:58:04;7.90;99.90
29281;DHT22;25048;49.590;11.026;2022-10-31T03:03:14;7.80;99.90
29281;DHT22;25048;49.590;11.026;2022-10-31T03:06:17;7.80;99.90
29281;DHT22;25048;49.590;11.026;2022-10-31T03:08:21;7.80;99.90
29281;DHT22;25048;49.590;11.026;2022-10-31T03:13:27;7.70;99.90
29281;DHT22;25048;49.590;11.026;2022-10-31T03:16:02;7.70;99.90
29281;DHT22;25048;49.590;11.026;2022-10-31T03:18:28;7.70;99.90
29281;DHT22;25048;49.590;11.026;2022-10-31T03:21:04;7.60;99.90
29281;DHT22;25048;49.590;11.026;2022-10-31T03:23:34;7.60;99.90
29281;DHT22;25048;49.590;11.026;2022-10-31T03:26:05;7.60;99.90
29281;DHT22;25048;49.590;11.026;2022-10-31T03:28:45;7.60;99.90
29281;DHT22;25048;49.590;11.026;2022-10-31T03:31:16;7.50;99.90
29281;DHT22;25048;49.590;11.026;2022-10-31T03:33:44;7.50;99.90
29281;DHT22;25048;49.590;11.026;2022-10-31T03:36:15;7.50;99.90
29281;DHT22;25048;49.590;11.026;2022-10-31T03:38:44;7.50;99.90
29281;DHT22;25048;49.590;11.026;2022-10-31T03:41:16;7.40;99.90
29281;DHT22;25048;49.590;11.026;2022-10-31T03:43:51;7.40;99.90
29281;DHT22;25048;49.590;11.026;2022-10-31T03:46:16;7.50;99.90
29281;DHT22;25048;49.590;11.026;2022-10-31T03:48:44;7.50;99.90
29281;DHT22;25048;49.590;11.026;2022-10-31T03:51:15;7.50;99.90
29281;DHT22;25048;49.590;11.026;2022-10-31T03:58:58;7.50;99.90
29281;DHT22;25048;49.590;11.026;2022-10-31T04:01:26;7.50;99.90
29281;DHT22;25048;49.590;11.026;2022-10-31T04:03:56;7.50;99.90
29281;DHT22;25048;49.590;11.026;2022-10-31T04:06:25;7.50;99.90
29281;DHT22;25048;49.590;11.026;2022-10-31T04:08:56;7.40;99.90
29281;DHT22;25048;49.590;11.026;2022-10-31T04:11:26;7.30;99.90
29281;DHT22;25048;49.590;11.026;2022-10-31T04:13:54;7.20;99.90
29281;DHT22;25048;49.590;11.026;2022-10-31T04:16:23;7.10;99.90
29281;DHT22;25048;49.590;11.026;2022-10-31T04:18:52;7.10;99.90
29281;DHT22;25048;49.590;11.026;2022-10-31T04:21:19;7.00;99.90
29281;DHT22;25048;49.590;11.026;2022-10-31T04:23:48;7.00;99.90
29281;DHT22;25048;49.590;11.026;2022-10-31T04:26:16;6.90;99.90
29281;DHT22;25048;49.590;11.026;2022-10-31T04:28:43;6.90;99.90
29281;DHT22;25048;49.590;11.026;2022-10-31T04:31:11;6.80;99.90
29281;DHT22;25048;49.590;11.026;2022-10-31T04:33:39;6.90;99.90
29281;DHT22;25048;49.590;11.026;2022-10-31T04:36:07;6.80;99.90
29281;DHT22;25048;49.590;11.026;2022-10-31T04:38:34;6.80;99.90
29281;DHT22;25048;49.590;11.026;2022-10-31T04:41:02;6.80;99.90
29281;DHT22;25048;49.590;11.026;2022-10-31T04:43:29;6.80;99.90
29281;DHT22;25048;49.590;11.026;2022-10-31T04:45:57;6.80;99.90
29281;DHT22;25048;49.590;11.026;2022-10-31T04:48:25;6.70;99.90
29281;DHT22;25048;49.590;11.026;2022-10-31T04:50:52;6.80;99.90
29281;DHT22;25048;49.590;11.026;2022-10-31T04:53:20;6.80;99.90
29281;DHT22;25048;49.590;11.026;2022-10-31T04:55:47;6.80;99.90
29281;DHT22;25048;49.590;11.026;2022-10-31T04:58:15;6.80;99.90
29281;DHT22;25048;49.590;11.026;2022-10-31T05:00:42;6.80;99.90
29281;DHT22;25048;49.590;11.026;2022-10-31T05:03:10;6.80;99.90
29281;DHT22;25048;49.590;11.026;2022-10-31T05:05:37;6.80;99.90
29281;DHT22;25048;49.590;11.026;2022-10-31T05:08:05;6.80;99.90
29281;DHT22;25048;49.590;11.026;2022-10-31T05:10:32;6.80;99.90
29281;DHT22;25048;49.590;11.026;2022-10-31T05:13:01;6.80;99.90
29281;DHT22;25048;49.590;11.026;2022-10-31T05:15:29;6.80;99.90
29281;DHT22;25048;49.590;11.026;2022-10-31T05:17:57;6.90;99.90
29281;DHT22;25048;49.590;11.026;2022-10-31T05:20:27;6.90;99.90
29281;DHT22;25048;49.590;11.026;2022-10-31T05:22:56;7.00;99.90
29281;DHT22;25048;49.590;11.026;2022-10-31T05:25:26;6.90;99.90
29281;DHT22;25048;49.590;11.026;2022-10-31T05:27:56;7.00;99.90
29281;DHT22;25048;49.590;11.026;2022-10-31T05:30:31;7.00;99.90
29281;DHT22;25048;49.590;11.026;2022-10-31T05:32:59;7.00;99.90
29281;DHT22;25048;49.590;11.026;2022-10-31T05:35:29;6.90;99.90
29281;DHT22;25048;49.590;11.026;2022-10-31T05:37:58;6.90;99.90
29281;DHT22;25048;49.590;11.026;2022-10-31T05:40:26;6.80;99.90
29281;DHT22;25048;49.590;11.026;2022-10-31T05:42:55;6.80;99.90
29281;DHT22;25048;49.590;11.026;2022-10-31T05:45:25;6.80;99.90
29281;DHT22;25048;49.590;11.026;2022-10-31T05:47:59;6.80;99.90
29281;DHT22;25048;49.590;11.026;2022-10-31T05:50:23;6.80;99.90
29281;DHT22;25048;49.590;11.026;2022-10-31T05:52:56;6.80;99.90
29281;DHT22;25048;49.590;11.026;2022-10-31T05:55:24;6.80;99.90
29281;DHT22;25048;49.590;11.026;2022-10-31T05:57:53;6.80;99.90
29281;DHT22;25048;49.590;11.026;2022-10-31T06:00:22;6.80;99.90
29281;DHT22;25048;49.590;11.026;2022-10-31T06:02:56;6.80;99.90
29281;DHT22;25048;49.590;11.026;2022-10-31T06:05:19;6.80;99.90
29281;DHT22;25048;49.590;11.026;2022-10-31T06:07:46;6.90;99.90
29281;DHT22;25048;49.590;11.026;2022-10-31T06:10:13;6.80;99.90
29281;DHT22;25048;49.590;11.026;2022-10-31T06:12:42;6.90;99.90
29281;DHT22;25048;49.590;11.026;2022-10-31T06:15:09;6.90;99.90
29281;DHT22;25048;49.590;11.026;2022-10-31T06:17:37;6.90;99.90
29281;DHT22;25048;49.590;11.026;2022-10-31T06:20:05;6.90;99.90
29281;DHT22;25048;49.590;11.026;2022-10-31T06:22:33;7.00;99.90
29281;DHT22;25048;49.590;11.026;2022-10-31T06:25:01;7.10;99.90
29281;DHT22;25048;49.590;11.026;2022-10-31T06:27:29;7.10;99.90
29281;DHT22;25048;49.590;11.026;2022-10-31T06:29:56;7.20;99.90
29281;DHT22;25048;49.590;11.026;2022-10-31T06:32:24;7.20;99.90
29281;DHT22;25048;49.590;11.026;2022-10-31T06:34:51;7.30;99.90
29281;DHT22;25048;49.590;11.026;2022-10-31T06:37:19;7.30;99.90
29281;DHT22;25048;49.590;11.026;2022-10-31T06:39:46;7.40;99.90
29281;DHT22;25048;49.590;11.026;2022-10-31T06:42:15;7.50;99.90
29281;DHT22;25048;49.590;11.026;2022-10-31T06:44:43;7.50;99.90
29281;DHT22;25048;49.590;11.026;2022-10-31T06:47:10;7.60;99.90
29281;DHT22;25048;49.590;11.026;2022-10-31T06:49:38;7.70;99.90
29281;DHT22;25048;49.590;11.026;2022-10-31T06:52:05;7.70;99.90
29281;DHT22;25048;49.590;11.026;2022-10-31T06:54:33;7.80;99.90
29281;DHT22;25048;49.590;11.026;2022-10-31T06:57:00;7.90;99.90
29281;DHT22;25048;49.590;11.026;2022-10-31T06:59:28;7.90;99.90
29281;DHT22;25048;49.590;11.026;2022-10-31T07:01:57;8.00;99.90
29281;DHT22;25048;49.590;11.026;2022-10-31T07:04:25;8.10;99.90
29281;DHT22;25048;49.590;11.026;2022-10-31T07:06:53;8.20;99.90
29281;DHT22;25048;49.590;11.026;2022-10-31T07:09:20;8.30;99.90
29281;DHT22;25048;49.590;11.026;2022-10-31T07:11:47;8.40;99.90
29281;DHT22;25048;49.590;11.026;2022-10-31T07:14:15;8.50;99.90
29281;DHT22;25048;49.590;11.026;2022-10-31T07:16:42;8.60;99.90
29281;DHT22;25048;49.590;11.026;2022-10-31T07:19:10;8.70;99.90
29281;DHT22;25048;49.590;11.026;2022-10-31T07:21:37;8.80;99.90
29281;DHT22;25048;49.590;11.026;2022-10-31T07:24:05;8.90;99.90
29281;DHT22;25048;49.590;11.026;2022-10-31T07:26:33;8.90;99.90
29281;DHT22;25048;49.590;11.026;2022-10-31T07:29:00;9.00;99.90
29281;DHT22;25048;49.590;11.026;2022-10-31T07:31:28;9.10;99.90
29281;DHT22;25048;49.590;11.026;2022-10-31T07:33:55;9.20;99.90
29281;DHT22;25048;49.590;11.026;2022-10-31T07:36:23;9.20;99.90
29281;DHT22;25048;49.590;11.026;2022-10-31T07:38:50;9.30;99.90
29281;DHT22;25048;49.590;11.026;2022-10-31T07:41:18;9.40;99.90
29281;DHT22;25048;49.590;11.026;2022-10-31T07:43:45;9.50;99.90
29281;DHT22;25048;49.590;11.026;2022-10-31T07:46:13;9.60;99.90
29281;DHT22;25048;49.590;11.026;2022-10-31T07:48:40;9.70;99.90
29281;DHT22;25048;49.590;11.026;2022-10-31T07:51:08;9.80;99.90
29281;DHT22;25048;49.590;11.026;2022-10-31T07:53:35;9.80;99.90
29281;DHT22;25048;49.590;11.026;2022-10-31T07:56:03;9.90;99.90
29281;DHT22;25048;49.590;11.026;2022-10-31T07:58:30;10.00;99.90
29281;DHT22;25048;49.590;11.026;2022-10-31T08:00:58;10.00;99.90
29281;DHT22;25048;49.590;11.026;2022-10-31T08:03:25;10.10;99.90
29281;DHT22;25048;49.590;11.026;2022-10-31T08:05:53;10.10;99.90
29281;DHT22;25048;49.590;11.026;2022-10-31T08:08:20;10.20;99.90
29281;DHT22;25048;49.590;11.026;2022-10-31T08:10:48;10.20;99.90
29281;DHT22;25048;49.590;11.026;2022-10-31T08:13:15;10.30;99.90
29281;DHT22;25048;49.590;11.026;2022-10-31T08:15:43;10.30;99.90
29281;DHT22;25048;49.590;11.026;2022-10-31T08:18:13;10.40;99.90
29281;DHT22;25048;49.590;11.026;2022-10-31T08:20:42;10.50;99.90
29281;DHT22;25048;49.590;11.026;2022-10-31T08:23:11;10.60;99.90
29281;DHT22;25048;49.590;11.026;2022-10-31T08:25:40;10.70;99.90
29281;DHT22;25048;49.590;11.026;2022-10-31T08:28:10;10.80;99.90
29281;DHT22;25048;49.590;11.026;2022-10-31T08:30:38;11.00;99.90
29281;DHT22;25048;49.590;11.026;2022-10-31T08:33:15;11.10;99.90
29281;DHT22;25048;49.590;11.026;2022-10-31T08:35:39;11.30;99.90
29281;DHT22;25048;49.590;11.026;2022-10-31T08:38:08;11.40;99.90
29281;DHT22;25048;49.590;11.026;2022-10-31T08:40:36;11.50;99.90
29281;DHT22;25048;49.590;11.026;2022-10-31T08:43:06;11.70;99.90
29281;DHT22;25048;49.590;11.026;2022-10-31T08:45:34;11.90;99.90
29281;DHT22;25048;49.590;11.026;2022-10-31T08:48:04;12.10;99.90
29281;DHT22;25048;49.590;11.026;2022-10-31T08:50:34;12.20;99.90
29281;DHT22;25048;49.590;11.026;2022-10-31T08:53:11;12.30;99.90
29281;DHT22;25048;49.590;11.026;2022-10-31T08:55:39;12.40;99.90
29281;DHT22;25048;49.590;11.026;2022-10-31T08:58:12;12.40;99.90
29281;DHT22;25048;49.590;11.026;2022-10-31T09:00:40;12.40;99.90
29281;DHT22;25048;49.590;11.026;2022-10-31T09:03:13;12.50;99.90
29281;DHT22;25048;49.590;11.026;2022-10-31T09:05:41;12.60;99.90
29281;DHT22;25048;49.590;11.026;2022-10-31T09:08:09;12.60;99.90
29281;DHT22;25048;49.590;11.026;2022-10-31T09:10:37;12.60;99.90
29281;DHT22;25048;49.590;11.026;2022-10-31T09:13:13;12.60;99.90
29281;DHT22;25048;49.590;11.026;2022-10-31T09:15:42;12.70;99.90
29281;DHT22;25048;49.590;11.026;2022-10-31T09:18:12;12.70;99.90
29281;DHT22;25048;49.590;11.026;2022-10-31T09:20:41;12.60;99.90
29281;DHT22;25048;49.590;11.026;2022-10-31T09:23:20;12.70;99.90
29281;DHT22;25048;49.590;11.026;2022-10-31T09:25:49;12.90;99.90
29281;DHT22;25048;49.590;11.026;2022-10-31T09:28:19;13.10;99.90
29281;DHT22;25048;49.590;11.026;2022-10-31T09:30:49;13.40;99.90
29281;DHT22;25048;49.590;11.026;2022-10-31T09:33:18;13.60;99.90
29281;DHT22;25048;49.590;11.026;2022-10-31T09:35:46;13.80;99.90
29281;DHT22;25048;49.590;11.026;2022-10-31T09:38:18;14.10;99.90
29281;DHT22;25048;49.590;11.026;2022-10-31T09:41:01;14.30;99.90
29281;DHT22;25048;49.590;11.026;2022-10-31T09:43:31;14.60;99.90
29281;DHT22;25048;49.590;11.026;2022-10-31T09:51:59;15.10;99.90
29281;DHT22;25048;49.590;11.026;2022-10-31T09:57:16;15.50;99.90
29281;DHT22;25048;49.590;11.026;2022-10-31T09:59:46;15.70;99.90
29281;DHT22;25048;49.590;11.026;2022-10-31T10:04:53;16.00;99.90
29281;DHT22;25048;49.590;11.026;2022-10-31T10:07:40;16.20;99.90
29281;DHT22;25048;49.590;11.026;2022-10-31T10:10:20;16.50;99.90
29281;DHT22;25048;49.590;11.026;2022-10-31T10:12:59;16.70;99.90
29281;DHT22;25048;49.590;11.026;2022-10-31T10:15:47;17.00;99.90
29281;DHT22;25048;49.590;11.026;2022-10-31T10:26:35;17.50;99.90
29281;DHT22;25048;49.590;11.026;2022-10-31T10:29:27;17.60;99.90
29281;DHT22;25048;49.590;11.026;2022-10-31T10:31:39;17.80;99.90
29281;DHT22;25048;49.590;11.026;2022-10-31T10:34:36;17.90;99.90
29281;DHT22;25048;49.590;11.026;2022-10-31T10:37:17;18.10;99.90
29281;DHT22;25048;49.590;11.026;2022-10-31T10:39:43;18.30;99.90
29281;DHT22;25048;49.590;11.026;2022-10-31T10:42:15;18.40;99.90
29281;DHT22;25048;49.590;11.026;2022-10-31T10:45:19;18.50;99.90
29281;DHT22;25048;49.590;11.026;2022-10-31T10:48:06;18.60;99.90
29281;DHT22;25048;49.590;11.026;2022-10-31T10:50:40;18.80;99.90
29281;DHT22;25048;49.590;11.026;2022-10-31T10:53:27;18.90;99.90
29281;DHT22;25048;49.590;11.026;2022-10-31T10:56:06;18.90;99.90
29281;DHT22;25048;49.590;11.026;2022-10-31T10:58:31;18.90;99.90
29281;DHT22;25048;49.590;11.026;2022-10-31T11:00:59;19.00;99.90
29281;DHT22;25048;49.590;11.026;2022-10-31T11:03:26;19.00;99.90
29281;DHT22;25048;49.590;11.026;2022-10-31T11:05:56;19.00;99.90
29281;DHT22;25048;49.590;11.026;2022-10-31T11:08:29;19.00;99.90
29281;DHT22;25048;49.590;11.026;2022-10-31T11:11:02;19.00;99.90
29281;DHT22;25048;49.590;11.026;2022-10-31T11:13:31;19.00;99.90
29281;DHT22;25048;49.590;11.026;2022-10-31T11:16:06;19.00;99.90
29281;DHT22;25048;49.590;11.026;2022-10-31T11:18:40;19.00;99.90
29281;DHT22;25048;49.590;11.026;2022-10-31T11:21:19;19.00;99.90
29281;DHT22;25048;49.590;11.026;2022-10-31T11:23:37;19.00;99.90
29281;DHT22;25048;49.590;11.026;2022-10-31T11:26:15;19.00;99.90
29281;DHT22;25048;49.590;11.026;2022-10-31T11:28:35;19.00;99.90
29281;DHT22;25048;49.590;11.026;2022-10-31T11:31:08;19.00;99.90
29281;DHT22;25048;49.590;11.026;2022-10-31T11:36:24;19.00;99.90
29281;DHT22;25048;49.590;11.026;2022-10-31T11:38:52;19.00;99.90
29281;DHT22;25048;49.590;11.026;2022-10-31T11:41:34;19.10;99.90
29281;DHT22;25048;49.590;11.026;2022-10-31T11:44:25;19.20;99.90
29281;DHT22;25048;49.590;11.026;2022-10-31T11:46:56;19.30;99.90
29281;DHT22;25048;49.590;11.026;2022-10-31T11:49:39;19.50;99.90
29281;DHT22;25048;49.590;11.026;2022-10-31T11:52:13;19.60;99.90
29281;DHT22;25048;49.590;11.026;2022-10-31T11:57:31;19.80;99.90
29281;DHT22;25048;49.590;11.026;2022-10-31T12:00:04;19.90;99.90
29281;DHT22;25048;49.590;11.026;2022-10-31T12:02:33;20.00;99.90
29281;DHT22;25048;49.590;11.026;2022-10-31T12:05:10;20.10;99.90
29281;DHT22;25048;49.590;11.026;2022-10-31T12:07:37;20.10;99.90
29281;DHT22;25048;49.590;11.026;2022-10-31T12:10:12;20.20;99.90
29281;DHT22;25048;49.590;11.026;2022-10-31T12:12:48;20.40;99.90
29281;DHT22;25048;49.590;11.026;2022-10-31T12:15:26;20.50;99.90
29281;DHT22;25048;49.590;11.026;2022-10-31T12:18:01;20.50;99.90
29281;DHT22;25048;49.590;11.026;2022-10-31T12:20:44;20.50;99.90
29281;DHT22;25048;49.590;11.026;2022-10-31T12:23:18;20.60;99.90
29281;DHT22;25048;49.590;11.026;2022-10-31T12:26:08;20.60;99.90
29281;DHT22;25048;49.590;11.026;2022-10-31T12:31:49;20.70;99.90
29281;DHT22;25048;49.590;11.026;2022-10-31T12:34:29;20.80;99.90
29281;DHT22;25048;49.590;11.026;2022-10-31T12:39:32;20.90;99.90
29281;DHT22;25048;49.590;11.026;2022-10-31T12:42:19;21.00;99.90
29281;DHT22;25048;49.590;11.026;2022-10-31T12:53:52;21.00;99.90
29281;DHT22;25048;49.590;11.026;2022-10-31T12:56:50;21.00;99.90
29281;DHT22;25048;49.590;11.026;2022-10-31T13:02:12;21.00;99.90
29281;DHT22;25048;49.590;11.026;2022-10-31T13:07:34;21.00;99.90
29281;DHT22;25048;49.590;11.026;2022-10-31T13:10:01;21.00;99.90
29281;DHT22;25048;49.590;11.026;2022-10-31T13:12:31;20.90;99.90
29281;DHT22;25048;49.590;11.026;2022-10-31T13:15:05;20.80;99.90
29281;DHT22;25048;49.590;11.026;2022-10-31T13:17:34;20.80;99.90
29281;DHT22;25048;49.590;11.026;2022-10-31T13:22:54;20.70;99.90
29281;DHT22;25048;49.590;11.026;2022-10-31T13:25:24;20.70;99.90
29281;DHT22;25048;49.590;11.026;2022-10-31T13:27:58;20.60;99.90
29281;DHT22;25048;49.590;11.026;2022-10-31T13:33:32;20.40;99.90
29281;DHT22;25048;49.590;11.026;2022-10-31T13:36:21;20.40;99.90
29281;DHT22;25048;49.590;11.026;2022-10-31T13:39:15;20.30;99.90
29281;DHT22;25048;49.590;11.026;2022-10-31T13:41:48;20.20;99.90
29281;DHT22;25048;49.590;11.026;2022-10-31T13:44:21;20.10;99.90
29281;DHT22;25048;49.590;11.026;2022-10-31T13:46:52;20.00;99.90
29281;DHT22;25048;49.590;11.026;2022-10-31T13:49:35;19.90;99.90
29281;DHT22;25048;49.590;11.026;2022-10-31T13:54:49;19.70;99.90
29281;DHT22;25048;49.590;11.026;2022-10-31T13:59:58;19.60;99.90
29281;DHT22;25048;49.590;11.026;2022-10-31T14:02:34;19.50;99.90
29281;DHT22;25048;49.590;11.026;2022-10-31T14:07:55;19.50;99.90
29281;DHT22;25048;49.590;11.026;2022-10-31T14:10:28;19.60;99.90
29281;DHT22;25048;49.590;11.026;2022-10-31T14:13:08;19.50;99.90
29281;DHT22;25048;49.590;11.026;2022-10-31T14:15:37;19.50;99.90
29281;DHT22;25048;49.590;11.026;2022-10-31T14:18:17;19.50;99.90
29281;DHT22;25048;49.590;11.026;2022-10-31T14:20:42;19.40;99.90
29281;DHT22;25048;49.590;11.026;2022-10-31T14:23:34;19.40;99.90
29281;DHT22;25048;49.590;11.026;2022-10-31T14:29:00;19.30;99.90
29281;DHT22;25048;49.590;11.026;2022-10-31T14:31:41;19.10;99.90
29281;DHT22;25048;49.590;11.026;2022-10-31T14:40:18;18.90;99.90
29281;DHT22;25048;49.590;11.026;2022-10-31T14:43:04;18.80;99.90
29281;DHT22;25048;49.590;11.026;2022-10-31T14:50:57;18.50;99.90
29281;DHT22;25048;49.590;11.026;2022-10-31T14:53:28;18.40;99.90
29281;DHT22;25048;49.590;11.026;2022-10-31T14:55:57;18.30;99.90
29281;DHT22;25048;49.590;11.026;2022-10-31T14:58:40;18.20;99.90
29281;DHT22;25048;49.590;11.026;2022-10-31T15:01:24;18.10;99.90
29281;DHT22;25048;49.590;11.026;2022-10-31T15:03:58;18.00;99.90
29281;DHT22;25048;49.590;11.026;2022-10-31T15:06:24;17.90;99.90
29281;DHT22;25048;49.590;11.026;2022-10-31T15:08:53;17.70;99.90
29281;DHT22;25048;49.590;11.026;2022-10-31T15:11:26;17.60;99.90
29281;DHT22;25048;49.590;11.026;2022-10-31T15:13:55;17.50;99.90
29281;DHT22;25048;49.590;11.026;2022-10-31T15:18:56;17.30;99.90
29281;DHT22;25048;49.590;11.026;2022-10-31T15:21:27;17.20;99.90
29281;DHT22;25048;49.590;11.026;2022-10-31T15:24:00;17.10;99.90
29281;DHT22;25048;49.590;11.026;2022-10-31T15:26:35;17.00;99.90
29281;DHT22;25048;49.590;11.026;2022-10-31T15:29:05;16.90;99.90
29281;DHT22;25048;49.590;11.026;2022-10-31T15:31:33;16.80;99.90
29281;DHT22;25048;49.590;11.026;2022-10-31T15:34:16;16.80;99.90
29281;DHT22;25048;49.590;11.026;2022-10-31T15:36:43;16.70;99.90
29281;DHT22;25048;49.590;11.026;2022-10-31T15:39:12;16.70;99.90
29281;DHT22;25048;49.590;11.026;2022-10-31T15:41:52;16.60;99.90
29281;DHT22;25048;49.590;11.026;2022-10-31T15:44:30;16.50;99.90
29281;DHT22;25048;49.590;11.026;2022-10-31T15:47:05;16.40;99.90
29281;DHT22;25048;49.590;11.026;2022-10-31T15:49:38;16.20;99.90
29281;DHT22;25048;49.590;11.026;2022-10-31T15:52:11;16.10;99.90
29281;DHT22;25048;49.590;11.026;2022-10-31T15:54:48;16.00;99.90
29281;DHT22;25048;49.590;11.026;2022-10-31T15:57:16;15.90;99.90
29281;DHT22;25048;49.590;11.026;2022-10-31T15:59:46;15.80;99.90
29281;DHT22;25048;49.590;11.026;2022-10-31T16:02:19;15.70;99.90
29281;DHT22;25048;49.590;11.026;2022-10-31T16:04:59;15.60;99.90
29281;DHT22;25048;49.590;11.026;2022-10-31T16:07:28;15.50;99.90
29281;DHT22;25048;49.590;11.026;2022-10-31T16:09:59;15.40;99.90
29281;DHT22;25048;49.590;11.026;2022-10-31T16:12:31;15.30;99.90
29281;DHT22;25048;49.590;11.026;2022-10-31T16:14:58;15.30;99.90
29281;DHT22;25048;49.590;11.026;2022-10-31T16:17:27;15.20;99.90
29281;DHT22;25048;49.590;11.026;2022-10-31T16:19:58;15.10;99.90
29281;DHT22;25048;49.590;11.026;2022-10-31T16:22:33;15.00;99.90
29281;DHT22;25048;49.590;11.026;2022-10-31T16:25:05;15.00;99.90
29281;DHT22;25048;49.590;11.026;2022-10-31T16:27:34;14.90;99.90
29281;DHT22;25048;49.590;11.026;2022-10-31T16:32:58;14.80;99.90
29281;DHT22;25048;49.590;11.026;2022-10-31T16:37:58;14.70;99.90
29281;DHT22;25048;49.590;11.026;2022-10-31T16:40:26;14.60;99.90
29281;DHT22;25048;49.590;11.026;2022-10-31T16:42:56;14.50;99.90
29281;DHT22;25048;49.590;11.026;2022-10-31T16:45:25;14.50;99.90
29281;DHT22;25048;49.590;11.026;2022-10-31T16:47:53;14.40;99.90
29281;DHT22;25048;49.590;11.026;2022-10-31T16:50:26;14.40;99.90
29281;DHT22;25048;49.590;11.026;2022-10-31T16:52:54;14.30;99.90
29281;DHT22;25048;49.590;11.026;2022-10-31T16:55:22;14.30;99.90
29281;DHT22;25048;49.590;11.026;2022-10-31T16:57:55;14.20;99.90
29281;DHT22;25048;49.590;11.026;2022-10-31T17:00:25;14.10;99.90
29281;DHT22;25048;49.590;11.026;2022-10-31T17:02:55;14.00;99.90
29281;DHT22;25048;49.590;11.026;2022-10-31T17:05:24;13.90;99.90
29281;DHT22;25048;49.590;11.026;2022-10-31T17:07:59;13.80;99.90
29281;DHT22;25048;49.590;11.026;2022-10-31T17:10:27;13.80;99.90
29281;DHT22;25048;49.590;11.026;2022-10-31T17:12:56;13.70;99.90
29281;DHT22;25048;49.590;11.026;2022-10-31T17:15:27;13.60;99.90
29281;DHT22;25048;49.590;11.026;2022-10-31T17:17:55;13.50;99.90
29281;DHT22;25048;49.590;11.026;2022-10-31T17:20:26;13.40;99.90
29281;DHT22;25048;49.590;11.026;2022-10-31T17:22:55;13.40;99.90
29281;DHT22;25048;49.590;11.026;2022-10-31T17:25:29;13.30;99.90
29281;DHT22;25048;49.590;11.026;2022-10-31T17:27:59;13.20;99.90
29281;DHT22;25048;49.590;11.026;2022-10-31T17:30:27;13.10;99.90
29281;DHT22;25048;49.590;11.026;2022-10-31T17:32:55;13.00;99.90
29281;DHT22;25048;49.590;11.026;2022-10-31T17:35:23;12.90;99.90